Terminal Aerodrome Forecast
Issued by NWS Quad Cities IA IL

Home | Current Version | Previous Version | Text Only | Print | Product List | Glossary On
Versions: 1 2 3 4 5 6 7 8 9 10 11 12 13 14 15 16 17 18 19 20 21 22 23 24 25 26 27 28 29 30 31 32 33 34
358
FTUS43 KDVN 172032 AAA
TAFMLI
TAF AMD
KMLI 172032Z 1721/1818 16006KT 3SM -SHRA OVC011
     FM180000 17009KT 3SM -RA BR OVC008
     FM180900 34012KT 2SM -RA BR OVC003
     FM181200 33012G20KT 2SM -RA OVC008
     FM181500 33015G25KT 3SM -RASN OVC012=

USA.gov is the U.S. government's official web portal to all federal, state and local government web resources and services.